Time;durP1;ratioP1;P1;durP2;ratioP2;P2;SDS_P1;SDS_P2;PMS_P1;PMS_P2;Temp;Humidity;BMP_temperature;BMP_pressure;BME280_temperature;BME280_humidity;BME280_pressure;Samples;Min_cycle;Max_cycle;Signal;HPM_P1;HPM_P2
2021/03/13 00:01:18;;;;;;;79.03;39.25;;;;;;;1.43;91.16;95074.34;5070225;28;20063;-69
2021/03/13 00:03:45;;;;;;;68.70;36.33;;;;;;;1.54;90.63;95066.25;5068491;28;20497;-68
2021/03/13 00:06:12;;;;;;;74.20;38.72;;;;;;;1.59;89.23;95063.19;5068483;28;20045;-68
2021/03/13 00:08:39;;;;;;;74.47;40.53;;;;;;;1.65;89.02;95063.28;5068484;28;20047;-68
2021/03/13 00:11:07;;;;;;;81.93;41.85;;;;;;;1.64;88.54;95061.72;5068178;28;20090;-68
2021/03/13 00:13:34;;;;;;;78.55;41.28;;;;;;;1.72;88.37;95053.94;5068474;28;20873;-69
2021/03/13 00:16:01;;;;;;;69.22;37.10;;;;;;;1.72;87.86;95059.06;5068157;28;20054;-68
2021/03/13 00:18:27;;;;;;;70.60;37.40;;;;;;;1.68;88.01;95042.41;5066782;28;20037;-68
2021/03/13 00:20:54;;;;;;;74.57;36.10;;;;;;;1.64;88.27;95046.31;5068292;28;20139;-67
2021/03/13 00:23:21;;;;;;;80.78;37.45;;;;;;;1.65;88.25;95042.75;5068446;28;20047;-69
2021/03/13 00:25:47;;;;;;;69.10;36.45;;;;;;;1.52;88.39;95022.78;5066694;28;20048;-69
2021/03/13 00:28:14;;;;;;;72.45;34.97;;;;;;;1.54;89.33;95035.44;5068318;28;20044;-69
2021/03/13 00:30:45;;;;;;;64.35;34.35;;;;;;;1.60;89.09;95039.88;5068138;28;20048;-69
2021/03/13 00:33:11;;;;;;;59.88;32.05;;;;;;;1.68;88.91;95036.50;5068155;28;20071;-69
2021/03/13 00:35:39;;;;;;;59.05;29.45;;;;;;;1.74;88.49;95035.00;5069145;28;20055;-69
2021/03/13 00:38:07;;;;;;;64.00;33.28;;;;;;;1.79;88.24;95032.72;5066466;28;20043;-69
2021/03/13 00:40:36;;;;;;;62.80;33.38;;;;;;;1.82;87.86;95032.38;5067874;28;20086;-69
2021/03/13 00:43:05;;;;;;;67.85;34.08;;;;;;;1.80;87.51;95035.13;5066757;28;20041;-69
2021/03/13 00:45:32;;;;;;;60.13;32.53;;;;;;;1.89;87.29;95033.28;5067860;28;20041;-69
2021/03/13 00:48:00;;;;;;;62.78;31.25;;;;;;;1.95;86.75;95027.47;5067854;28;20075;-69
2021/03/13 00:50:31;;;;;;;66.82;33.63;;;;;;;1.84;86.85;95035.59;5067750;28;20047;-69
2021/03/13 00:52:58;;;;;;;75.45;35.97;;;;;;;1.77;87.55;95034.66;5049635;28;20058;-68
2021/03/13 00:55:26;;;;;;;99.70;43.22;;;;;;;1.76;87.92;95038.19;5067979;28;20068;-69
2021/03/13 00:57:58;;;;;;;100.80;46.58;;;;;;;1.79;87.78;95032.72;5066193;28;20529;-69
2021/03/13 01:00:47;;;;;;;88.43;42.38;;;;;;;1.85;87.80;95043.09;5066223;28;20040;-69
2021/03/13 01:03:18;;;;;;;103.25;51.67;;;;;;;1.63;88.67;95024.16;5065556;28;20045;-69
2021/03/13 01:05:45;;;;;;;104.13;49.35;;;;;;;1.76;88.98;95017.66;5065690;28;20037;-69
2021/03/13 01:08:13;;;;;;;87.50;43.13;;;;;;;1.90;88.70;95025.41;5066286;28;20042;-68
2021/03/13 01:10:56;;;;;;;86.88;42.38;;;;;;;1.99;87.97;95012.50;5066488;28;20040;-69
2021/03/13 01:13:28;;;;;;;73.43;37.08;;;;;;;1.97;87.30;95010.13;5066243;28;20048;-69
2021/03/13 01:15:57;;;;;;;70.22;36.97;;;;;;;2.07;87.06;95015.81;5065770;28;20048;-69
2021/03/13 01:18:23;;;;;;;74.28;37.38;;;;;;;2.06;87.05;95009.06;5066686;28;20493;-69
2021/03/13 01:20:51;;;;;;;72.03;39.65;;;;;;;2.05;86.86;95006.66;5066249;28;20056;-68
2021/03/13 01:23:21;;;;;;;78.82;37.53;;;;;;;2.15;86.93;95006.44;5066769;28;20502;-68
2021/03/13 01:25:48;;;;;;;79.72;40.38;;;;;;;2.13;86.84;95003.25;5066198;28;20149;-68
2021/03/13 01:28:15;;;;;;;77.35;41.75;;;;;;;1.92;88.14;94996.97;5067026;28;20498;-68
2021/03/13 01:30:58;;;;;;;88.50;43.92;;;;;;;1.97;88.32;95004.97;5065832;28;20064;-68
2021/03/13 01:33:24;;;;;;;77.75;39.00;;;;;;;2.01;88.30;95001.06;5067369;28;20045;-68
2021/03/13 01:35:51;;;;;;;86.30;41.15;;;;;;;2.01;88.01;95006.22;5065991;28;20043;-68
2021/03/13 01:38:17;;;;;;;91.10;44.10;;;;;;;1.95;88.62;95008.69;5065762;28;20123;-68
2021/03/13 01:40:45;;;;;;;89.72;45.90;;;;;;;1.97;88.59;95004.19;5066099;28;20068;-68
2021/03/13 01:43:11;;;;;;;83.55;43.30;;;;;;;1.97;88.33;95001.63;5066996;28;20094;-68
2021/03/13 01:45:38;;;;;;;90.57;44.33;;;;;;;2.04;87.90;95005.88;5065745;28;20098;-68
2021/03/13 01:48:05;;;;;;;85.63;44.05;;;;;;;2.12;87.72;95011.91;5066660;28;20044;-68
2021/03/13 01:50:32;;;;;;;114.70;54.53;;;;;;;2.07;87.60;95005.53;5065065;28;20598;-68
2021/03/13 01:52:59;;;;;;;102.25;48.00;;;;;;;2.14;87.25;95009.97;5066355;28;20043;-68
2021/03/13 01:55:31;;;;;;;87.35;43.47;;;;;;;2.05;86.93;95002.34;5065930;28;20044;-69
2021/03/13 01:58:03;;;;;;;68.53;37.40;;;;;;;2.03;87.06;94999.13;5065399;28;20048;-68
2021/03/13 02:00:36;;;;;;;81.78;39.35;;;;;;;2.03;87.54;95004.28;5065081;28;20074;-68
2021/03/13 02:03:04;;;;;;;83.43;40.38;;;;;;;1.95;87.55;94991.50;5066760;28;20044;-69
2021/03/13 02:05:51;;;;;;;83.68;40.22;;;;;;;1.94;88.37;94989.91;5066466;28;20036;-68
2021/03/13 02:08:25;;;;;;;74.93;38.67;;;;;;;2.00;88.49;94984.09;5065328;28;20123;-69
2021/03/13 02:11:26;;;;;;;67.97;36.65;;;;;;;2.12;88.60;94973.38;5065061;28;20123;-68
2021/03/13 02:14:12;;;;;;;73.85;38.47;;;;;;;1.95;89.58;94970.97;5066674;28;20040;-68
2021/03/13 02:17:06;;;;;;;71.47;37.13;;;;;;;1.90;90.35;94974.03;5064946;28;20060;-68
2021/03/13 02:20:04;;;;;;;72.30;37.08;;;;;;;1.69;91.76;94974.69;5064879;28;20152;-68
2021/03/13 02:22:39;;;;;;;66.38;35.40;;;;;;;1.56;91.61;94956.50;5063474;28;20045;-68
2021/03/13 02:25:44;;;;;;;79.53;40.25;;;;;;;1.94;90.68;94974.47;5066369;28;20055;-68
2021/03/13 02:28:50;;;;;;;127.82;51.70;;;;;;;1.81;90.12;94979.41;5064134;28;20044;-68
2021/03/13 02:31:19;;;;;;;111.65;48.72;;;;;;;1.44;91.51;94960.41;5063125;28;20052;-68
2021/03/13 02:33:48;;;;;;;90.03;42.97;;;;;;;1.41;92.35;94978.75;5064508;28;20044;-67
2021/03/13 02:36:35;;;;;;;86.75;45.88;;;;;;;1.18;93.39;94979.50;5064881;28;20126;-69
2021/03/13 02:39:10;;;;;;;89.75;46.08;;;;;;;1.01;94.78;94978.78;5062964;28;20044;-68
2021/03/13 02:41:49;;;;;;;106.63;51.40;;;;;;;1.00;95.05;94976.41;5064965;28;20489;-68
2021/03/13 02:44:18;;;;;;;96.00;47.97;;;;;;;1.10;94.61;94977.00;5064593;28;20072;-68
2021/03/13 02:46:52;;;;;;;92.18;46.83;;;;;;;0.91;95.73;94973.84;5065473;28;20032;-68
2021/03/13 02:49:26;;;;;;;95.00;46.45;;;;;;;1.11;95.31;94974.25;5064361;28;20102;-68
2021/03/13 02:52:02;;;;;;;85.43;43.90;;;;;;;1.08;94.67;94968.66;5063859;28;20064;-68
2021/03/13 02:54:34;;;;;;;93.45;46.42;;;;;;;0.80;95.80;94963.97;5064407;28;20044;-68
2021/03/13 02:57:03;;;;;;;88.97;46.33;;;;;;;0.95;96.26;94974.31;5061683;28;20135;-69
2021/03/13 02:59:30;;;;;;;91.30;46.40;;;;;;;0.82;96.95;94959.47;5063617;28;20073;-69
2021/03/13 03:02:09;;;;;;;96.70;46.35;;;;;;;0.83;97.08;94961.09;5064054;28;20044;-68
2021/03/13 03:04:39;;;;;;;93.65;46.38;;;;;;;1.11;96.54;94963.19;5063474;28;20052;-69
2021/03/13 03:07:09;;;;;;;86.28;44.72;;;;;;;1.24;95.74;94955.75;5064877;28;20040;-69
2021/03/13 03:09:37;;;;;;;89.43;46.67;;;;;;;1.22;94.70;94955.09;5063207;28;20421;-68
2021/03/13 03:12:05;;;;;;;86.18;46.65;;;;;;;1.04;95.58;94965.63;5064567;28;20445;-68
2021/03/13 03:14:34;;;;;;;88.28;47.53;;;;;;;0.86;96.42;94971.00;5062582;28;20084;-69
2021/03/13 03:17:03;;;;;;;78.47;43.97;;;;;;;0.84;97.34;94972.13;5063498;28;20849;-69
2021/03/13 03:19:36;;;;;;;83.25;43.67;;;;;;;0.92;96.47;94949.81;5063741;28;20040;-68
2021/03/13 03:22:10;;;;;;;91.00;44.78;;;;;;;0.99;96.14;94955.09;5063401;28;20052;-68
2021/03/13 03:24:41;;;;;;;87.78;46.95;;;;;;;1.02;95.64;94943.69;5062888;28;20041;-68
2021/03/13 03:27:08;;;;;;;91.93;42.95;;;;;;;0.94;95.67;94953.00;5064550;28;20045;-69
2021/03/13 03:29:39;;;;;;;95.28;46.17;;;;;;;0.91;96.25;94953.34;5063018;28;20037;-69
2021/03/13 03:32:13;;;;;;;91.22;43.70;;;;;;;1.18;95.58;94943.59;5063503;28;20129;-69
2021/03/13 03:34:40;;;;;;;85.88;44.67;;;;;;;1.25;95.01;94939.38;5064494;28;20083;-68
2021/03/13 03:37:07;;;;;;;83.25;44.80;;;;;;;1.12;94.88;94929.66;5067554;28;20518;-69
2021/03/13 03:39:35;;;;;;;90.45;48.35;;;;;;;0.83;97.05;94945.69;5066832;28;20052;-69
2021/03/13 03:42:05;;;;;;;86.57;48.60;;;;;;;0.67;98.13;94950.91;5067758;28;20044;-68
2021/03/13 03:44:41;;;;;;;93.55;48.33;;;;;;;0.62;98.58;94959.06;5067796;28;20037;-69
2021/03/13 03:47:11;;;;;;;86.03;47.72;;;;;;;0.67;98.66;94963.72;5068964;28;20041;-68
2021/03/13 03:49:41;;;;;;;83.53;43.42;;;;;;;0.73;98.60;94957.91;5067304;28;20064;-69
2021/03/13 03:52:35;;;;;;;86.95;47.72;;;;;;;0.57;98.77;94949.31;5067372;28;20051;-68
2021/03/13 03:55:02;;;;;;;94.85;46.15;;;;;;;0.47;99.85;94971.78;5069193;28;21074;-68
2021/03/13 03:57:30;;;;;;;83.88;47.03;;;;;;;0.51;99.96;94967.94;5067556;28;20142;-69
2021/03/13 03:59:57;;;;;;;84.28;45.70;;;;;;;0.67;99.93;94972.19;5068640;28;20047;-68
2021/03/13 04:02:27;;;;;;;78.20;41.30;;;;;;;0.88;99.85;94974.22;5068323;28;20037;-68
2021/03/13 04:04:54;;;;;;;75.97;41.15;;;;;;;0.99;98.86;94985.03;5068788;28;20040;-68
2021/03/13 04:07:21;;;;;;;76.18;40.05;;;;;;;0.90;98.47;94974.84;5068157;28;20469;-69
2021/03/13 04:09:49;;;;;;;85.72;41.08;;;;;;;0.97;98.26;94974.16;5069276;28;20524;-68
2021/03/13 04:12:20;;;;;;;82.47;41.53;;;;;;;1.16;98.03;94976.31;5068549;28;20510;-68
2021/03/13 04:14:47;;;;;;;75.47;41.05;;;;;;;1.28;97.15;94969.84;5068389;28;20045;-68
2021/03/13 04:17:15;;;;;;;71.57;39.67;;;;;;;1.13;97.38;94974.06;5068330;28;20040;-69
2021/03/13 04:19:43;;;;;;;79.13;40.25;;;;;;;1.10;97.78;94977.78;5068644;28;20036;-68
2021/03/13 04:22:09;;;;;;;72.57;40.47;;;;;;;1.09;98.05;94990.78;5066836;28;20041;-69
2021/03/13 04:24:38;;;;;;;89.35;46.35;;;;;;;0.92;99.05;94990.84;5068483;28;20049;-69
2021/03/13 04:27:05;;;;;;;84.28;43.88;;;;;;;0.95;99.30;94977.72;5068436;28;20033;-69
2021/03/13 04:29:31;;;;;;;72.97;40.65;;;;;;;1.21;98.63;94979.16;5068103;28;20413;-69
2021/03/13 04:32:00;;;;;;;105.10;56.45;;;;;;;1.03;98.17;94965.81;5068189;28;20080;-69
2021/03/13 04:34:29;;;;;;;146.13;85.07;;;;;;;1.13;97.96;94966.38;5066851;28;20102;-69
2021/03/13 04:36:56;;;;;;;79.25;47.20;;;;;;;1.04;98.80;94972.53;5068860;28;20055;-69
2021/03/13 04:39:24;;;;;;;89.28;43.63;;;;;;;1.24;98.38;94976.28;5066250;28;20041;-68
2021/03/13 04:41:51;;;;;;;70.13;38.63;;;;;;;1.44;97.50;94973.25;5067150;28;20052;-68
2021/03/13 04:44:18;;;;;;;74.53;37.30;;;;;;;1.62;96.92;94971.22;5067496;28;20048;-69
2021/03/13 04:46:45;;;;;;;78.38;45.72;;;;;;;1.29;96.51;94966.28;5066245;28;20046;-69
2021/03/13 04:49:11;;;;;;;75.28;41.08;;;;;;;1.25;96.95;94954.75;5067642;28;20043;-69
2021/03/13 04:51:39;;;;;;;68.43;36.83;;;;;;;1.55;96.45;94959.22;5067302;28;20478;-69
2021/03/13 04:54:05;;;;;;;63.95;38.35;;;;;;;1.69;95.84;94967.00;5067801;28;20041;-68
2021/03/13 04:56:32;;;;;;;70.90;39.83;;;;;;;1.72;94.03;94961.50;5067536;28;20044;-69
2021/03/13 04:58:59;;;;;;;67.95;39.20;;;;;;;1.83;94.51;94967.19;5067773;28;20060;-69
2021/03/13 05:01:26;;;;;;;71.43;46.33;;;;;;;1.86;94.02;94964.28;5069330;28;20511;-69
2021/03/13 05:03:52;;;;;;;75.72;39.28;;;;;;;1.95;93.17;94958.13;5069080;28;20052;-69
2021/03/13 05:06:19;;;;;;;64.85;37.88;;;;;;;2.07;92.91;94961.88;5067774;28;20036;-69
2021/03/13 05:08:45;;;;;;;76.18;40.88;;;;;;;2.07;91.98;94949.00;5067438;28;20036;-69
2021/03/13 05:11:12;;;;;;;76.30;43.63;;;;;;;2.22;91.22;94971.38;5068602;28;20044;-69
2021/03/13 05:13:39;;;;;;;74.70;44.08;;;;;;;2.20;90.49;94952.75;5070549;28;20179;-69
2021/03/13 05:16:05;;;;;;;73.90;43.55;;;;;;;2.30;90.18;94963.56;5066152;28;20124;-69
2021/03/13 05:18:32;;;;;;;67.57;38.33;;;;;;;2.23;89.93;94950.63;5066444;28;20068;-69
2021/03/13 05:20:59;;;;;;;73.47;41.47;;;;;;;2.32;89.74;94961.59;5066507;28;20044;-69
2021/03/13 05:23:25;;;;;;;76.75;44.15;;;;;;;2.43;89.73;94978.38;5067381;28;20040;-70
2021/03/13 05:25:52;;;;;;;78.43;44.33;;;;;;;2.41;89.38;94965.72;5067182;28;20394;-70
2021/03/13 05:28:18;;;;;;;85.18;46.80;;;;;;;2.51;89.17;94974.94;5068708;28;20040;-68
2021/03/13 05:30:44;;;;;;;78.43;46.97;;;;;;;2.55;89.34;94976.16;5065767;28;20044;-69
2021/03/13 05:33:11;;;;;;;61.22;37.67;;;;;;;2.60;89.02;94984.16;5066979;28;20047;-69
2021/03/13 05:35:39;;;;;;;58.13;33.10;;;;;;;2.64;89.15;94985.38;5064198;28;20101;-69
2021/03/13 05:38:06;;;;;;;56.38;32.97;;;;;;;2.70;89.20;94983.88;5064279;28;20064;-69
2021/03/13 05:40:32;;;;;;;58.30;30.83;;;;;;;2.70;89.15;94984.66;5063586;28;20041;-69
2021/03/13 05:42:59;;;;;;;62.40;34.63;;;;;;;2.76;89.04;94983.97;5065523;28;20036;-69
2021/03/13 05:45:26;;;;;;;53.47;31.13;;;;;;;2.81;88.90;94986.81;5065768;28;20037;-69
2021/03/13 05:47:54;;;;;;;56.33;31.85;;;;;;;2.85;88.20;94980.31;5065920;28;20047;-69
2021/03/13 05:50:21;;;;;;;49.40;30.20;;;;;;;2.96;88.21;94993.72;5065587;28;20043;-69
2021/03/13 05:52:53;;;;;;;60.38;29.40;;;;;;;2.98;87.69;94986.63;5065863;28;20047;-70
2021/03/13 05:55:20;;;;;;;59.10;34.80;;;;;;;2.99;87.38;94977.91;5067314;28;20052;-69
2021/03/13 05:57:50;;;;;;;57.30;32.70;;;;;;;3.05;87.06;94987.50;5066035;28;20559;-69
2021/03/13 06:00:17;;;;;;;53.25;33.53;;;;;;;3.13;87.11;94984.81;5066442;28;20058;-69
2021/03/13 06:02:44;;;;;;;50.90;29.88;;;;;;;2.94;86.27;94985.38;5066787;28;20048;-70
2021/03/13 06:05:12;;;;;;;72.72;36.60;;;;;;;3.11;86.79;94986.75;5066533;28;20123;-69
2021/03/13 06:07:40;;;;;;;64.65;33.35;;;;;;;3.25;86.09;94993.66;5068080;28;20490;-69
2021/03/13 06:10:07;;;;;;;65.75;35.58;;;;;;;3.34;86.44;94994.34;5066494;28;20049;-69
2021/03/13 06:12:33;;;;;;;62.10;36.95;;;;;;;3.43;86.67;95010.50;5066393;28;20036;-69
2021/03/13 06:15:00;;;;;;;60.45;34.58;;;;;;;3.49;86.06;95025.19;5066243;28;20044;-69
2021/03/13 06:17:26;;;;;;;62.25;33.15;;;;;;;3.56;86.42;95026.06;5066470;28;20066;-69
2021/03/13 06:19:55;;;;;;;57.42;34.83;;;;;;;3.53;86.25;95021.31;5066045;28;20037;-69
2021/03/13 06:22:39;;;;;;;73.60;38.35;;;;;;;3.64;85.96;95020.81;5066098;28;20444;-69
2021/03/13 06:25:25;;;;;;;57.15;32.45;;;;;;;3.70;84.90;95031.38;5065694;28;20115;-69
2021/03/13 06:28:07;;;;;;;65.88;35.00;;;;;;;3.36;86.41;95009.63;5065597;28;20044;-70
2021/03/13 06:30:36;;;;;;;60.30;34.20;;;;;;;3.31;86.43;95009.38;5064484;28;20063;-69
2021/03/13 06:33:27;;;;;;;61.83;35.33;;;;;;;3.35;87.92;95008.84;5066304;28;21474;-69
2021/03/13 06:35:58;;;;;;;70.88;37.17;;;;;;;3.67;87.32;95017.06;5065395;28;20131;-69
2021/03/13 06:38:28;;;;;;;61.50;31.27;;;;;;;3.72;84.60;95027.63;5064380;28;20586;-69
2021/03/13 06:40:57;;;;;;;60.58;33.10;;;;;;;3.88;84.51;95024.03;5064974;28;20433;-69
2021/03/13 06:43:30;;;;;;;55.75;31.13;;;;;;;4.07;84.01;95026.94;5065354;28;20452;-69
2021/03/13 06:46:03;;;;;;;57.13;30.27;;;;;;;4.33;81.81;95032.34;5064842;28;20048;-69
2021/03/13 06:48:31;;;;;;;67.88;35.67;;;;;;;4.49;80.98;95033.06;5064633;28;20082;-69
2021/03/13 06:51:21;;;;;;;54.03;30.23;;;;;;;4.68;81.26;95050.44;5064647;28;20059;-70
2021/03/13 06:54:17;;;;;;;73.28;38.80;;;;;;;4.75;81.33;95035.81;5065143;28;20083;-69
2021/03/13 06:56:46;;;;;;;70.07;37.75;;;;;;;4.91;80.97;95045.00;5064443;28;20041;-69
2021/03/13 06:59:35;;;;;;;60.72;35.38;;;;;;;4.99;80.72;95036.34;5064410;28;20048;-69
2021/03/13 07:02:03;;;;;;;56.63;31.52;;;;;;;4.92;79.94;95040.66;5063228;28;20426;-69
2021/03/13 07:04:31;;;;;;;61.10;36.78;;;;;;;5.03;79.66;95036.75;5065661;28;20051;-69
2021/03/13 07:06:59;;;;;;;61.22;34.08;;;;;;;4.99;79.96;95026.00;5065450;28;20044;-69
2021/03/13 07:09:46;;;;;;;56.60;31.83;;;;;;;5.15;79.41;95030.84;5066469;28;20117;-69
2021/03/13 07:12:42;;;;;;;53.03;30.08;;;;;;;5.28;78.23;95029.31;5063967;28;20051;-69
2021/03/13 07:15:16;;;;;;;54.53;32.90;;;;;;;5.43;76.22;95031.75;5065248;28;20051;-69
2021/03/13 07:17:54;;;;;;;64.78;40.00;;;;;;;5.45;76.21;95040.91;5065797;28;20053;-70
2021/03/13 07:20:33;;;;;;;63.70;34.78;;;;;;;5.51;75.88;95032.38;5063984;28;20509;-69
2021/03/13 07:23:05;;;;;;;62.78;37.60;;;;;;;5.50;76.40;95043.69;5065564;28;20519;-69
2021/03/13 07:25:32;;;;;;;62.75;38.13;;;;;;;5.41;76.34;95024.19;5065452;28;20048;-69
2021/03/13 07:28:03;;;;;;;77.38;49.63;;;;;;;5.60;76.47;95045.13;5065519;28;20048;-69
2021/03/13 07:30:33;;;;;;;66.95;37.83;;;;;;;5.62;77.45;95048.28;5064037;28;20060;-69
2021/03/13 07:33:03;;;;;;;69.88;42.80;;;;;;;5.69;78.02;95052.53;5065412;28;20517;-69
2021/03/13 07:35:46;;;;;;;66.97;33.92;;;;;;;5.80;77.19;95052.91;5064870;28;20118;-70
2021/03/13 07:38:15;;;;;;;59.85;33.83;;;;;;;5.78;75.94;95040.22;5065021;28;20781;-69
2021/03/13 07:40:46;;;;;;;62.65;37.75;;;;;;;5.86;75.97;95057.31;5063120;28;20039;-70
2021/03/13 07:43:15;;;;;;;57.13;34.10;;;;;;;6.03;74.18;95057.78;5064447;28;20410;-70
2021/03/13 07:45:42;;;;;;;66.13;35.88;;;;;;;6.19;74.26;95062.56;5064395;28;20041;-70
2021/03/13 07:48:09;;;;;;;67.15;38.67;;;;;;;6.31;73.64;95058.41;5065557;28;20133;-69
2021/03/13 07:50:43;;;;;;;93.68;40.40;;;;;;;6.44;72.98;95059.41;5063970;28;20048;-69
2021/03/13 07:53:10;;;;;;;70.63;38.70;;;;;;;6.62;72.51;95051.84;5063618;28;20044;-70
2021/03/13 07:55:38;;;;;;;81.38;42.35;;;;;;;6.72;73.10;95029.91;5065885;28;20394;-70
2021/03/13 07:58:08;;;;;;;91.70;47.25;;;;;;;6.91;70.92;95044.63;5065114;28;20131;-71
2021/03/13 08:00:44;;;;;;;76.35;40.63;;;;;;;7.15;72.17;95050.16;5064076;28;20047;-70
2021/03/13 08:03:37;;;;;;;70.78;40.83;;;;;;;7.32;72.26;95058.28;5066994;28;20443;-70
2021/03/13 08:06:15;;;;;;;61.38;36.85;;;;;;;7.33;71.79;95047.72;5064110;28;20552;-69
2021/03/13 08:08:46;;;;;;;63.75;38.88;;;;;;;7.29;70.96;95051.69;5066420;28;20043;-70
2021/03/13 08:11:14;;;;;;;61.95;38.78;;;;;;;7.35;72.22;95066.44;5065193;28;20367;-70
2021/03/13 08:13:40;;;;;;;61.10;34.58;;;;;;;7.45;71.23;95071.19;5064954;28;20049;-70
2021/03/13 08:16:18;;;;;;;61.58;38.35;;;;;;;7.38;71.30;95062.63;5067332;28;20064;-71
2021/03/13 08:18:49;;;;;;;68.15;34.47;;;;;;;7.55;70.75;95060.41;5063928;28;20116;-71
2021/03/13 08:21:21;;;;;;;55.67;34.60;;;;;;;7.63;70.32;95062.75;5067044;28;20052;-71
2021/03/13 08:23:48;;;;;;;61.50;35.15;;;;;;;7.70;69.38;95058.31;5069001;28;20082;-72
2021/03/13 08:26:16;;;;;;;57.03;34.38;;;;;;;7.65;68.46;95046.00;5068742;28;20560;-71
2021/03/13 08:28:46;;;;;;;73.05;41.88;;;;;;;7.80;68.70;95063.06;5068166;28;20050;-73
2021/03/13 08:31:24;;;;;;;62.00;37.85;;;;;;;7.92;68.46;95050.22;5068900;28;20052;-72
2021/03/13 08:33:56;;;;;;;60.28;37.40;;;;;;;7.93;68.02;95057.00;5068771;28;20068;-72
2021/03/13 08:36:28;;;;;;;69.82;36.38;;;;;;;7.88;67.77;95059.44;5068782;28;20055;-72
2021/03/13 08:38:57;;;;;;;55.33;33.22;;;;;;;8.09;67.16;95072.09;5066507;28;20044;-72
2021/03/13 08:41:42;;;;;;;52.92;34.22;;;;;;;8.14;67.00;95058.47;5068814;28;20040;-72
2021/03/13 08:44:11;;;;;;;;;;;;;;;8.20;66.05;95068.81;5069171;28;20040;-72
2021/03/13 08:46:55;;;;;;;54.72;33.00;;;;;;;8.23;65.31;95071.00;5069030;28;19920;-73
2021/03/13 08:49:24;;;;;;;57.55;30.30;;;;;;;8.29;64.63;95065.97;5067828;28;20043;-71
2021/03/13 08:52:03;;;;;;;75.38;35.88;;;;;;;8.39;63.57;95061.09;5072250;28;20527;-71
2021/03/13 08:54:50;;;;;;;86.85;41.70;;;;;;;8.40;64.45;95063.47;5068308;28;20165;-71
2021/03/13 08:57:25;;;;;;;153.35;52.53;;;;;;;8.39;64.61;95071.47;5068317;28;20044;-72
2021/03/13 08:59:51;;;;;;;69.00;35.35;;;;;;;8.39;65.07;95061.09;5067462;28;20512;-70
2021/03/13 09:02:30;;;;;;;125.03;47.30;;;;;;;8.44;64.41;95058.69;5069651;28;20044;-72
2021/03/13 09:05:07;;;;;;;56.13;32.88;;;;;;;8.41;64.48;95059.09;5068365;28;20040;-71
2021/03/13 09:07:34;;;;;;;55.95;32.33;;;;;;;8.37;64.46;95056.13;5068031;28;20051;-71
2021/03/13 09:10:00;;;;;;;66.95;39.75;;;;;;;8.54;64.02;95069.41;5068756;28;20481;-72
2021/03/13 09:12:30;;;;;;;115.97;45.97;;;;;;;8.59;63.93;95082.53;5067503;28;20068;-71
2021/03/13 09:14:59;;;;;;;58.50;33.22;;;;;;;8.64;63.88;95073.31;5067292;28;20391;-70
2021/03/13 09:17:29;;;;;;;68.88;35.22;;;;;;;8.38;64.31;95062.13;5066996;28;20040;-72
2021/03/13 09:20:05;;;;;;;68.75;35.65;;;;;;;8.34;64.85;95079.13;5068244;28;20036;-71
2021/03/13 09:22:31;;;;;;;55.40;33.08;;;;;;;8.26;65.14;95079.34;5067780;28;20094;-71
2021/03/13 09:25:04;;;;;;;105.47;44.22;;;;;;;8.31;65.15;95074.34;5066263;28;20143;-71
2021/03/13 09:27:37;;;;;;;55.47;33.30;;;;;;;8.18;66.60;95081.19;5067636;28;20053;-71
2021/03/13 09:30:11;;;;;;;70.43;37.25;;;;;;;8.26;67.75;95084.56;5069169;28;20398;-71
2021/03/13 09:32:44;;;;;;;;;;;;;;;8.32;66.80;95081.09;5067679;28;20040;-71
2021/03/13 09:35:11;;;;;;;66.18;35.97;;;;;;;8.20;68.69;95081.78;5066590;28;19932;-72
2021/03/13 09:37:41;;;;;;;56.20;33.88;;;;;;;8.14;68.34;95080.03;5066344;28;20052;-72
2021/03/13 09:40:14;;;;;;;59.78;36.85;;;;;;;8.22;69.01;95087.56;5064903;28;20425;-71
2021/03/13 09:42:42;;;;;;;74.30;38.20;;;;;;;8.18;69.35;95086.38;5067013;28;20040;-71
2021/03/13 09:45:12;;;;;;;64.05;38.47;;;;;;;8.28;69.92;95079.94;5068803;28;20119;-71
2021/03/13 09:47:43;;;;;;;56.60;34.58;;;;;;;8.27;69.96;95083.56;5066992;28;20551;-72
2021/03/13 09:50:14;;;;;;;64.45;37.00;;;;;;;8.51;70.21;95087.19;5066515;28;20110;-70
2021/03/13 09:52:42;;;;;;;62.15;36.53;;;;;;;8.67;68.58;95093.69;5066893;28;20043;-71
2021/03/13 09:55:24;;;;;;;58.25;34.65;;;;;;;9.05;68.34;95079.75;5067088;28;20068;-71
2021/03/13 09:57:58;;;;;;;51.53;32.85;;;;;;;9.37;67.27;95072.63;5066993;28;20059;-71
2021/03/13 10:00:31;;;;;;;;;;;;;;;9.69;67.87;95065.47;5065865;28;20032;-71
2021/03/13 10:03:01;;;;;;;40.60;22.20;;;;;;;9.69;65.37;95075.84;5064850;28;19934;-71
2021/03/13 10:05:31;;;;;;;42.42;23.23;;;;;;;9.79;66.28;95074.53;5066803;28;20406;-70
2021/03/13 10:08:05;;;;;;;35.03;22.48;;;;;;;9.80;65.14;95061.31;5064681;28;20068;-69
2021/03/13 10:10:32;;;;;;;43.63;23.73;;;;;;;9.79;64.31;95048.53;5066818;28;20413;-71
2021/03/13 10:13:06;;;;;;;39.72;24.25;;;;;;;9.97;63.71;95048.47;5067933;28;20044;-71
2021/03/13 10:15:35;;;;;;;46.17;25.42;;;;;;;10.22;62.91;95069.16;5066353;28;20032;-71
2021/03/13 10:18:06;;;;;;;39.00;22.60;;;;;;;10.42;61.32;95070.69;5067701;28;20044;-72
2021/03/13 10:20:32;;;;;;;45.75;23.80;;;;;;;10.54;61.55;95068.13;5064880;28;20111;-70
2021/03/13 10:23:04;;;;;;;46.30;25.10;;;;;;;10.46;61.35;95064.84;5065297;28;20047;-70
2021/03/13 10:25:30;;;;;;;42.53;24.55;;;;;;;10.67;60.73;95080.94;5065360;28;20137;-70
2021/03/13 10:28:11;;;;;;;37.38;21.42;;;;;;;10.74;60.03;95081.63;5065380;28;20060;-70
2021/03/13 10:30:41;;;;;;;37.25;21.27;;;;;;;10.65;60.45;95090.78;5060999;28;20402;-70
2021/03/13 10:33:09;;;;;;;38.88;21.05;;;;;;;10.67;60.08;95089.53;5067599;28;20060;-70
2021/03/13 10:35:36;;;;;;;35.70;21.50;;;;;;;10.64;60.25;95073.56;5065251;28;20167;-71
2021/03/13 10:38:10;;;;;;;37.55;21.42;;;;;;;10.63;60.49;95072.78;5063133;28;20421;-71
2021/03/13 10:40:43;;;;;;;31.33;19.27;;;;;;;10.98;59.48;95071.19;5065366;28;20036;-71
2021/03/13 10:43:20;;;;;;;32.05;17.80;;;;;;;11.14;57.50;95065.28;5065104;28;20114;-71
2021/03/13 10:45:59;;;;;;;28.23;17.17;;;;;;;11.21;56.85;95065.97;5066368;28;20058;-72
2021/03/13 10:48:31;;;;;;;26.92;16.98;;;;;;;11.31;56.46;95059.38;5065393;28;20060;-71
2021/03/13 10:50:58;;;;;;;29.40;16.70;;;;;;;11.55;54.76;95054.94;5063485;28;20039;-72
2021/03/13 10:53:27;;;;;;;33.67;18.08;;;;;;;11.57;54.87;95061.47;5065766;28;20060;-71
2021/03/13 10:55:55;;;;;;;59.78;30.45;;;;;;;11.67;54.84;95061.69;5066412;28;20056;-72
2021/03/13 10:58:47;;;;;;;29.63;19.08;;;;;;;11.77;54.29;95068.13;5066631;28;20052;-71
2021/03/13 11:01:14;;;;;;;29.33;17.63;;;;;;;11.61;55.63;95064.41;5062298;28;20050;-72
2021/03/13 11:03:43;;;;;;;23.05;13.60;;;;;;;11.46;54.18;95067.53;5067884;28;20069;-71
2021/03/13 11:06:22;;;;;;;29.92;16.40;;;;;;;11.35;54.71;95070.97;5066372;28;20494;-71
2021/03/13 11:08:49;;;;;;;20.37;13.13;;;;;;;11.13;54.87;95068.94;5068608;28;20057;-70
2021/03/13 11:11:15;;;;;;;36.63;19.02;;;;;;;11.10;56.00;95058.97;5067964;28;20048;-70
2021/03/13 11:13:42;;;;;;;51.35;24.67;;;;;;;11.23;54.59;95053.50;5064868;28;20056;-71
2021/03/13 11:16:18;;;;;;;21.65;11.63;;;;;;;11.69;52.56;95055.47;5064875;28;20079;-70
2021/03/13 11:18:45;;;;;;;20.05;12.73;;;;;;;11.93;52.42;95061.41;5063366;28;20052;-72
2021/03/13 11:21:12;;;;;;;18.60;11.43;;;;;;;11.67;52.15;95066.13;5066349;28;20051;-71
2021/03/13 11:23:39;;;;;;;19.42;12.95;;;;;;;11.58;54.15;95065.69;5063510;28;20066;-71
2021/03/13 11:26:09;;;;;;;15.15;11.25;;;;;;;11.53;53.48;95057.75;5063621;28;20159;-71
2021/03/13 11:28:36;;;;;;;25.05;12.77;;;;;;;11.41;53.73;95059.59;5066015;28;20452;-70
2021/03/13 11:31:02;;;;;;;18.50;12.07;;;;;;;11.52;54.00;95048.34;5064078;28;20036;-72
2021/03/13 11:33:29;;;;;;;16.65;10.95;;;;;;;11.80;52.51;95038.97;5065914;28;20048;-71
2021/03/13 11:35:55;;;;;;;18.40;11.32;;;;;;;12.22;52.80;95038.69;5067404;28;20044;-71
2021/03/13 11:38:33;;;;;;;24.08;14.10;;;;;;;12.50;51.17;95034.44;5064713;28;20111;-71
2021/03/13 11:41:02;;;;;;;26.33;15.57;;;;;;;12.37;51.61;95012.81;5066230;28;20033;-72
2021/03/13 11:43:30;;;;;;;19.85;12.80;;;;;;;12.23;50.94;95014.94;5066839;28;20127;-71